Time;durP1;ratioP1;P1;durP2;ratioP2;P2;SDS_P1;SDS_P2;PMS_P1;PMS_P2;Temp;Humidity;BMP_temperature;BMP_pressure;BME280_temperature;BME280_humidity;BME280_pressure;Samples;Min_cycle;Max_cycle;Signal;HPM_P1;HPM_P2
2021/10/08 00:02:02;;;;;;;7.22;4.75;;;12.40;99.90;;;;;;6240224;23;20071;-76
2021/10/08 00:04:27;;;;;;;5.32;4.72;;;12.40;99.90;;;;;;6240445;23;20011;-75
2021/10/08 00:06:53;;;;;;;7.55;5.13;;;12.40;99.90;;;;;;6242518;23;20004;-75
2021/10/08 00:09:18;;;;;;;6.78;5.25;;;12.40;99.90;;;;;;6239599;23;20572;-74
2021/10/08 00:11:44;;;;;;;15.85;5.55;;;12.50;99.90;;;;;;6238554;23;20365;-75
2021/10/08 00:14:10;;;;;;;7.30;5.65;;;12.40;99.90;;;;;;6240873;23;20442;-75
2021/10/08 00:16:35;;;;;;;9.98;6.10;;;12.50;99.90;;;;;;6240800;23;20323;-74
2021/10/08 00:19:01;;;;;;;7.82;5.70;;;12.50;99.90;;;;;;6238091;23;20318;-75
2021/10/08 00:21:27;;;;;;;5.85;4.88;;;12.60;99.90;;;;;;6240109;23;20067;-75
2021/10/08 00:23:52;;;;;;;7.57;5.25;;;12.60;99.90;;;;;;6238795;23;20474;-75
2021/10/08 00:26:18;;;;;;;10.10;5.22;;;12.60;99.90;;;;;;6238976;23;20493;-75
2021/10/08 00:28:44;;;;;;;6.90;5.82;;;12.60;99.90;;;;;;6238759;23;20062;-75
2021/10/08 00:31:09;;;;;;;10.13;5.90;;;12.60;99.90;;;;;;6239435;23;20011;-75
2021/10/08 00:33:34;;;;;;;9.30;6.15;;;12.70;99.90;;;;;;6238837;23;20004;-75
2021/10/08 00:36:00;;;;;;;5.93;5.28;;;12.70;99.90;;;;;;6241361;23;20469;-75
2021/10/08 00:38:26;;;;;;;7.25;5.38;;;12.70;99.80;;;;;;6240191;23;20110;-75
2021/10/08 00:40:51;;;;;;;7.20;5.03;;;12.70;99.80;;;;;;6237745;23;20008;-75
2021/10/08 00:43:19;;;;;;;6.35;4.97;;;12.80;99.70;;;;;;6239687;23;20091;-75
2021/10/08 00:45:45;;;;;;;5.97;4.97;;;12.70;99.80;;;;;;6238515;23;20616;-75
2021/10/08 00:48:10;;;;;;;5.03;4.53;;;12.80;99.70;;;;;;6238519;23;20008;-75
2021/10/08 00:50:38;;;;;;;6.32;4.50;;;12.80;99.60;;;;;;6239398;23;20433;-75
2021/10/08 00:53:07;;;;;;;11.73;5.35;;;12.80;99.70;;;;;;6239837;23;20043;-75
2021/10/08 00:55:41;;;;;;;7.00;5.40;;;12.80;99.70;;;;;;6240330;23;20339;-75
2021/10/08 00:58:08;;;;;;;8.15;5.57;;;12.80;99.80;;;;;;6240175;23;20070;-75
2021/10/08 01:00:33;;;;;;;8.80;5.18;;;12.80;99.70;;;;;;6240009;23;20004;-76
2021/10/08 01:02:59;;;;;;;6.88;4.88;;;12.80;99.70;;;;;;6240529;23;20061;-75
2021/10/08 01:05:24;;;;;;;8.82;5.43;;;12.80;99.70;;;;;;6238827;23;20004;-75
2021/10/08 01:07:50;;;;;;;8.52;5.10;;;12.80;99.60;;;;;;6240481;23;20012;-75
2021/10/08 01:10:15;;;;;;;6.82;4.57;;;12.80;99.60;;;;;;6240414;23;20051;-75
2021/10/08 01:12:42;;;;;;;5.18;4.38;;;12.90;99.50;;;;;;6239445;23;20066;-75
2021/10/08 01:15:09;;;;;;;7.53;5.20;;;12.80;99.50;;;;;;6239083;23;20742;-75
2021/10/08 01:17:35;;;;;;;6.28;4.32;;;12.80;99.60;;;;;;6239767;23;20084;-76
2021/10/08 01:20:07;;;;;;;7.07;4.60;;;12.90;99.60;;;;;;6235551;23;20020;-75
2021/10/08 01:22:33;;;;;;;;;;;12.90;99.60;;;;;;6240425;23;20370;-75
2021/10/08 01:24:58;;;;;;;5.63;4.20;;;12.90;99.50;;;;;;6239675;23;19953;-74
2021/10/08 01:27:24;;;;;;;6.55;4.68;;;12.80;99.50;;;;;;6240283;23;20617;-75
2021/10/08 01:29:52;;;;;;;7.65;4.82;;;12.80;99.60;;;;;;6238295;23;20007;-75
2021/10/08 01:32:18;;;;;;;7.35;5.18;;;12.80;99.60;;;;;;6239210;23;20004;-75
2021/10/08 01:34:44;;;;;;;5.78;4.80;;;12.80;99.70;;;;;;6239468;23;20019;-74
2021/10/08 01:37:09;;;;;;;6.10;5.13;;;12.90;99.60;;;;;;6239090;23;20004;-76
2021/10/08 01:39:34;;;;;;;6.13;4.65;;;12.90;99.50;;;;;;6238807;23;20004;-75
2021/10/08 01:42:00;;;;;;;7.13;4.90;;;12.80;99.60;;;;;;6236689;23;20004;-76
2021/10/08 01:44:25;;;;;;;5.28;4.78;;;12.90;99.60;;;;;;6237590;23;20039;-76
2021/10/08 01:46:51;;;;;;;4.93;4.28;;;12.80;99.60;;;;;;6238267;23;20075;-76
2021/10/08 01:49:17;;;;;;;6.38;4.80;;;12.80;99.60;;;;;;6236606;23;20031;-75
2021/10/08 01:51:42;;;;;;;5.93;4.65;;;12.90;99.60;;;;;;6239476;23;20008;-75
2021/10/08 01:54:09;;;;;;;6.22;5.20;;;12.90;99.70;;;;;;6237648;23;20080;-75
2021/10/08 01:56:35;;;;;;;6.03;4.50;;;12.80;99.70;;;;;;6237402;23;20093;-76
2021/10/08 01:59:01;;;;;;;5.38;4.72;;;12.80;99.70;;;;;;6239187;23;19996;-76
2021/10/08 02:01:27;;;;;;;7.05;4.47;;;12.80;99.70;;;;;;6238527;23;20403;-74
2021/10/08 02:03:53;;;;;;;4.97;4.10;;;12.80;99.70;;;;;;6240337;23;20431;-75
2021/10/08 02:06:18;;;;;;;6.38;4.63;;;12.90;99.80;;;;;;6240303;23;20000;-74
2021/10/08 02:08:44;;;;;;;6.72;4.15;;;12.90;99.70;;;;;;6239262;23;20082;-75
2021/10/08 02:11:09;;;;;;;6.32;4.50;;;12.80;99.70;;;;;;6237529;23;20087;-74
2021/10/08 02:13:35;;;;;;;4.78;4.28;;;12.90;99.80;;;;;;6238050;23;20008;-75
2021/10/08 02:16:01;;;;;;;5.97;4.15;;;12.80;99.80;;;;;;6237345;23;19992;-74
2021/10/08 02:18:28;;;;;;;7.05;4.25;;;12.80;99.70;;;;;;6238638;23;20015;-76
2021/10/08 02:20:54;;;;;;;5.10;3.92;;;12.90;99.70;;;;;;6236306;23;20000;-76
2021/10/08 02:23:20;;;;;;;5.10;4.22;;;12.90;99.70;;;;;;6239434;23;20056;-76
2021/10/08 02:25:45;;;;;;;10.27;4.57;;;12.90;99.70;;;;;;6239110;23;20414;-76
2021/10/08 02:28:11;;;;;;;5.32;4.75;;;12.90;99.70;;;;;;6239401;23;20393;-75
2021/10/08 02:30:36;;;;;;;5.65;4.32;;;12.90;99.70;;;;;;6240494;23;20035;-76
2021/10/08 02:33:02;;;;;;;6.72;4.28;;;12.90;99.80;;;;;;6238014;23;20004;-74
2021/10/08 02:35:27;;;;;;;6.80;4.53;;;12.90;99.70;;;;;;6236330;23;20039;-74
2021/10/08 02:37:52;;;;;;;8.20;4.63;;;12.90;99.70;;;;;;6239137;23;19996;-74
2021/10/08 02:40:18;;;;;;;6.10;4.32;;;12.90;99.80;;;;;;6239190;23;20315;-74
2021/10/08 02:42:44;;;;;;;5.85;4.78;;;12.90;99.80;;;;;;6237847;23;20082;-75
2021/10/08 02:45:10;;;;;;;6.20;4.88;;;12.90;99.90;;;;;;6239060;23;20505;-74
2021/10/08 02:47:35;;;;;;;5.18;4.45;;;12.90;99.90;;;;;;6239751;23;19996;-74
2021/10/08 02:50:00;;;;;;;5.53;4.32;;;12.90;99.90;;;;;;6238987;23;20037;-75
2021/10/08 02:52:26;;;;;;;5.80;4.28;;;12.90;99.90;;;;;;6241116;23;20015;-75
2021/10/08 02:54:51;;;;;;;7.47;4.53;;;12.90;99.90;;;;;;6240442;23;20004;-76
2021/10/08 02:57:18;;;;;;;5.55;4.70;;;12.90;99.90;;;;;;6240822;23;20486;-76
2021/10/08 02:59:43;;;;;;;8.82;4.93;;;12.90;99.90;;;;;;6240933;23;20019;-76
2021/10/08 03:02:09;;;;;;;7.70;4.68;;;12.90;99.90;;;;;;6237181;23;20012;-76
2021/10/08 03:04:34;;;;;;;6.57;5.05;;;12.90;99.90;;;;;;6239656;23;20008;-76
2021/10/08 03:07:00;;;;;;;5.35;4.82;;;12.90;99.90;;;;;;6241398;23;20323;-74
2021/10/08 03:09:25;;;;;;;7.10;4.85;;;12.90;99.90;;;;;;6240635;23;20005;-76
2021/10/08 03:11:51;;;;;;;5.88;4.40;;;12.90;99.90;;;;;;6239767;23;20394;-76
2021/10/08 03:14:16;;;;;;;5.05;4.13;;;12.90;99.90;;;;;;6239412;23;20083;-77
2021/10/08 03:16:42;;;;;;;9.98;4.53;;;12.90;99.90;;;;;;6237772;23;20023;-75
2021/10/08 03:19:07;;;;;;;6.25;4.13;;;12.90;99.90;;;;;;6238673;23;20034;-75
2021/10/08 03:21:33;;;;;;;7.28;4.53;;;12.90;99.90;;;;;;6238017;23;20000;-75
2021/10/08 03:23:59;;;;;;;7.82;4.93;;;12.90;99.90;;;;;;6240006;23;20000;-76
2021/10/08 03:26:25;;;;;;;8.25;4.65;;;12.90;99.90;;;;;;6241447;23;20019;-74
2021/10/08 03:28:50;;;;;;;8.32;5.45;;;12.90;99.90;;;;;;6238029;23;20039;-75
2021/10/08 03:31:16;;;;;;;4.97;4.10;;;12.90;99.90;;;;;;6239389;23;20043;-75
2021/10/08 03:33:42;;;;;;;6.82;4.90;;;12.90;99.90;;;;;;6238326;23;20019;-75
2021/10/08 03:36:12;;;;;;;8.25;5.45;;;12.90;99.90;;;;;;6240621;23;20004;-75
2021/10/08 03:38:38;;;;;;;5.20;4.70;;;12.80;99.90;;;;;;6241915;23;20024;-75
2021/10/08 03:41:09;;;;;;;7.05;5.07;;;12.80;99.80;;;;;;6237986;23;20015;-75
2021/10/08 03:43:35;;;;;;;6.10;4.82;;;12.70;99.80;;;;;;6238430;23;20009;-75
2021/10/08 03:46:04;;;;;;;6.20;4.90;;;12.70;99.90;;;;;;6238809;23;20079;-75
2021/10/08 03:50:59;;;;;;;7.97;5.38;;;12.60;99.90;;;;;;6237808;23;20058;-76
2021/10/08 03:53:25;;;;;;;6.75;5.20;;;12.50;99.90;;;;;;6236996;23;20004;-76
2021/10/08 03:55:51;;;;;;;6.63;5.38;;;12.50;99.90;;;;;;6237993;23;20003;-75
2021/10/08 03:58:16;;;;;;;6.60;5.65;;;12.40;99.90;;;;;;6236345;23;20323;-76
2021/10/08 04:00:42;;;;;;;8.75;5.93;;;12.40;99.90;;;;;;6237828;23;20039;-74
2021/10/08 04:03:08;;;;;;;6.28;5.43;;;12.30;99.90;;;;;;6239167;23;20004;-75
2021/10/08 04:05:33;;;;;;;6.70;5.50;;;12.30;99.90;;;;;;6233217;23;20095;-74
2021/10/08 04:07:59;;;;;;;9.73;6.05;;;12.20;99.90;;;;;;6238528;23;20004;-75
2021/10/08 04:10:24;;;;;;;8.63;5.80;;;12.10;99.90;;;;;;6240500;23;20083;-75
2021/10/08 04:12:50;;;;;;;7.43;5.97;;;12.10;99.90;;;;;;6238889;23;20004;-77
2021/10/08 04:15:16;;;;;;;6.88;5.25;;;12.10;99.90;;;;;;6240920;23;20068;-76
2021/10/08 04:17:41;;;;;;;8.63;6.90;;;12.10;99.90;;;;;;6233140;23;20004;-76
2021/10/08 04:20:07;;;;;;;9.00;6.60;;;12.00;99.90;;;;;;6232528;23;20128;-75
2021/10/08 04:22:33;;;;;;;8.95;6.70;;;12.00;99.90;;;;;;6226278;23;20023;-76
2021/10/08 04:24:58;;;;;;;7.32;6.28;;;11.90;99.90;;;;;;6232314;23;20011;-75
2021/10/08 04:27:24;;;;;;;9.35;6.32;;;11.90;99.90;;;;;;6234955;23;20238;-76
2021/10/08 04:29:49;;;;;;;8.20;6.03;;;11.80;99.90;;;;;;6231665;23;20004;-77
2021/10/08 04:32:15;;;;;;;9.57;6.45;;;11.80;99.90;;;;;;6235409;23;20382;-74
2021/10/08 04:34:40;;;;;;;8.40;6.28;;;11.80;99.90;;;;;;6238404;23;20224;-75
2021/10/08 04:37:06;;;;;;;8.07;6.38;;;11.70;99.90;;;;;;6236762;23;20461;-75
2021/10/08 04:39:32;;;;;;;11.50;6.43;;;11.70;99.90;;;;;;6235468;23;20091;-74
2021/10/08 04:41:58;;;;;;;8.77;6.32;;;11.70;99.90;;;;;;6236801;23;20450;-74
2021/10/08 04:44:23;;;;;;;14.80;7.20;;;11.70;99.90;;;;;;6236421;23;19996;-74
2021/10/08 04:46:49;;;;;;;10.07;7.15;;;11.60;99.90;;;;;;6237970;23;20425;-74
2021/10/08 04:49:14;;;;;;;11.45;7.75;;;11.60;99.90;;;;;;6236231;23;20538;-75
2021/10/08 04:51:40;;;;;;;10.35;7.25;;;11.60;99.90;;;;;;6236241;23;20323;-75
2021/10/08 04:54:06;;;;;;;9.45;6.80;;;11.60;99.90;;;;;;6236363;23;20054;-74
2021/10/08 04:56:33;;;;;;;11.68;7.85;;;11.50;99.90;;;;;;6236300;23;20000;-75
2021/10/08 04:58:59;;;;;;;11.88;7.88;;;11.50;99.90;;;;;;6238026;23;20430;-75
2021/10/08 05:01:27;;;;;;;8.00;6.43;;;11.50;99.90;;;;;;6237292;23;20011;-75
2021/10/08 05:03:52;;;;;;;12.15;7.35;;;11.40;99.90;;;;;;6235971;23;20006;-75
2021/10/08 05:06:18;;;;;;;11.45;8.15;;;11.40;99.90;;;;;;6235347;23;20365;-74
2021/10/08 05:08:43;;;;;;;12.43;7.72;;;11.30;99.90;;;;;;6235105;23;20000;-74
2021/10/08 05:11:09;;;;;;;13.75;9.05;;;11.30;99.90;;;;;;6237672;23;20095;-74
2021/10/08 05:13:34;;;;;;;16.70;9.05;;;11.30;99.90;;;;;;6234802;23;20090;-74
2021/10/08 05:16:00;;;;;;;17.15;9.50;;;11.20;99.90;;;;;;6235113;23;20363;-75
2021/10/08 05:18:26;;;;;;;11.57;8.80;;;11.20;99.90;;;;;;6232568;23;20004;-75
2021/10/08 05:20:52;;;;;;;14.80;10.25;;;11.20;99.90;;;;;;6233024;23;20011;-75
2021/10/08 05:23:18;;;;;;;12.75;8.77;;;11.20;99.90;;;;;;6233342;22;20004;-75
2021/10/08 05:25:43;;;;;;;15.32;9.80;;;11.20;99.90;;;;;;6235888;23;20427;-75
2021/10/08 05:28:10;;;;;;;11.98;8.75;;;11.20;99.90;;;;;;6237803;23;20043;-84
2021/10/08 05:30:35;;;;;;;13.90;8.30;;;11.20;99.90;;;;;;6236549;23;20057;-76
2021/10/08 05:33:01;;;;;;;17.17;10.20;;;11.20;99.90;;;;;;6237420;23;20016;-76
2021/10/08 05:35:27;;;;;;;15.73;9.30;;;11.20;99.90;;;;;;6237077;23;20004;-76
2021/10/08 05:37:53;;;;;;;14.48;9.73;;;11.20;99.90;;;;;;6237400;23;20442;-76
2021/10/08 05:40:19;;;;;;;16.25;9.00;;;11.20;99.90;;;;;;6238455;23;19992;-76
2021/10/08 05:42:45;;;;;;;15.52;10.80;;;11.20;99.90;;;;;;6237596;23;20461;-76
2021/10/08 05:45:11;;;;;;;14.20;10.32;;;11.20;99.90;;;;;;6237998;23;20518;-76
2021/10/08 05:47:36;;;;;;;11.98;9.48;;;11.10;99.90;;;;;;6237352;23;20008;-76
2021/10/08 05:50:02;;;;;;;16.38;11.55;;;11.10;99.90;;;;;;6237405;23;20070;-76
2021/10/08 05:52:28;;;;;;;14.48;9.68;;;11.10;99.90;;;;;;6237321;23;20012;-76
2021/10/08 05:54:53;;;;;;;19.65;11.50;;;11.10;99.90;;;;;;6238706;23;20000;-76
2021/10/08 05:57:19;;;;;;;18.17;11.27;;;11.10;99.90;;;;;;6237926;23;20004;-76
2021/10/08 05:59:44;;;;;;;17.75;11.18;;;11.10;99.90;;;;;;6236836;23;20071;-76
2021/10/08 06:02:11;;;;;;;19.25;11.07;;;11.10;99.90;;;;;;6236926;23;20612;-76
2021/10/08 06:04:37;;;;;;;17.05;11.73;;;11.10;99.90;;;;;;6237350;22;20011;-77
2021/10/08 06:07:02;;;;;;;19.10;12.10;;;11.10;99.90;;;;;;6238595;23;20028;-75
2021/10/08 06:09:28;;;;;;;17.83;12.60;;;11.10;99.90;;;;;;6236981;23;20046;-76
2021/10/08 06:11:53;;;;;;;23.30;13.75;;;11.10;99.90;;;;;;6238022;23;20383;-76
2021/10/08 06:14:19;;;;;;;23.15;13.25;;;11.10;99.90;;;;;;6236996;23;20327;-77
2021/10/08 06:16:44;;;;;;;22.02;13.50;;;11.10;99.90;;;;;;6235889;23;20004;-76
2021/10/08 06:19:10;;;;;;;19.35;13.65;;;11.10;99.90;;;;;;6237049;22;20008;-76
2021/10/08 06:21:35;;;;;;;23.55;15.07;;;11.10;99.90;;;;;;6236801;23;20099;-77
2021/10/08 06:24:01;;;;;;;30.27;15.45;;;11.20;99.90;;;;;;6237856;23;20000;-76
2021/10/08 06:26:26;;;;;;;27.90;15.50;;;11.20;99.90;;;;;;6237376;23;20461;-76
2021/10/08 06:28:52;;;;;;;29.55;15.85;;;11.20;99.90;;;;;;6235163;23;20147;-76
2021/10/08 06:31:17;;;;;;;26.50;16.58;;;11.30;99.90;;;;;;6237704;23;20015;-76
2021/10/08 06:33:43;;;;;;;23.83;15.80;;;11.30;99.90;;;;;;6238143;23;20026;-77
2021/10/08 06:36:08;;;;;;;24.15;16.08;;;11.30;99.90;;;;;;6237511;23;20000;-76
2021/10/08 06:38:33;;;;;;;30.90;16.15;;;11.40;99.90;;;;;;6236709;23;20087;-76
2021/10/08 06:40:59;;;;;;;25.63;16.13;;;11.40;99.90;;;;;;6237373;23;19996;-76
2021/10/08 06:43:24;;;;;;;26.95;16.15;;;11.50;99.90;;;;;;6238023;23;20331;-77
2021/10/08 06:45:50;;;;;;;33.33;17.55;;;11.50;99.90;;;;;;6237432;23;20007;-76
2021/10/08 06:48:15;;;;;;;29.25;17.05;;;11.50;99.90;;;;;;6236656;23;20000;-77
2021/10/08 06:50:41;;;;;;;30.92;17.48;;;11.60;99.90;;;;;;6237712;23;20004;-77
2021/10/08 06:53:09;;;;;;;25.92;16.52;;;11.60;99.90;;;;;;6235773;23;20019;-76
2021/10/08 06:55:35;;;;;;;32.65;17.70;;;11.70;99.90;;;;;;6237138;23;20250;-77
2021/10/08 06:58:02;;;;;;;28.20;18.08;;;11.70;99.90;;;;;;6237140;22;20083;-76
2021/10/08 07:00:27;;;;;;;28.92;18.40;;;11.70;99.90;;;;;;6236105;23;20008;-76
2021/10/08 07:02:54;;;;;;;25.92;18.17;;;11.80;99.90;;;;;;6237638;23;20072;-76
2021/10/08 07:05:23;;;;;;;26.20;17.85;;;11.90;99.90;;;;;;6261082;22;19997;-76
2021/10/08 07:07:49;;;;;;;31.50;17.73;;;12.00;99.90;;;;;;6237234;22;20004;-76
2021/10/08 07:10:15;;;;;;;31.77;19.33;;;12.10;99.90;;;;;;6237237;23;20005;-76
2021/10/08 07:12:40;;;;;;;35.80;19.60;;;12.10;99.90;;;;;;6235878;23;20412;-76
2021/10/08 07:15:15;;;;;;;33.00;19.98;;;12.10;99.90;;;;;;6236855;23;20007;-76
2021/10/08 07:17:43;;;;;;;29.77;19.80;;;12.20;99.90;;;;;;6236580;22;19996;-77
2021/10/08 07:20:09;;;;;;;35.28;21.65;;;12.20;99.90;;;;;;6238091;22;20028;-77
2021/10/08 07:22:36;;;;;;;31.10;20.33;;;12.30;99.90;;;;;;6237451;23;20203;-77
2021/10/08 07:25:03;;;;;;;31.20;20.13;;;12.40;99.90;;;;;;6237573;23;20352;-75
2021/10/08 07:27:28;;;;;;;29.23;20.58;;;12.40;99.90;;;;;;6237175;23;20036;-75
2021/10/08 07:29:54;;;;;;;34.28;21.30;;;12.40;99.90;;;;;;6236025;23;20383;-75
2021/10/08 07:32:20;;;;;;;36.40;21.35;;;12.50;99.90;;;;;;6238589;23;20001;-75
2021/10/08 07:34:45;;;;;;;31.73;21.27;;;12.50;99.90;;;;;;6239654;23;20007;-75
2021/10/08 07:37:13;;;;;;;34.03;21.42;;;12.50;99.90;;;;;;6236557;23;20078;-74
2021/10/08 07:39:40;;;;;;;41.92;22.25;;;12.60;99.90;;;;;;6238400;22;20000;-76
2021/10/08 07:42:06;;;;;;;35.03;22.75;;;12.70;99.90;;;;;;6239059;23;20015;-76
2021/10/08 07:44:31;;;;;;;39.17;22.38;;;12.80;99.90;;;;;;6263651;22;20004;-75
2021/10/08 07:46:57;;;;;;;32.33;21.42;;;12.80;99.90;;;;;;6239155;23;20011;-75
2021/10/08 07:49:22;;;;;;;35.83;20.67;;;12.90;99.90;;;;;;6237669;23;20032;-76
2021/10/08 07:51:48;;;;;;;33.10;20.90;;;13.00;99.90;;;;;;6239277;23;20004;-74
2021/10/08 07:54:13;;;;;;;35.08;23.10;;;13.10;99.90;;;;;;6262841;22;20059;-75
2021/10/08 07:56:39;;;;;;;34.00;23.02;;;13.20;99.90;;;;;;6239247;23;20112;-75
2021/10/08 07:59:05;;;;;;;34.28;20.45;;;13.20;99.90;;;;;;6238272;23;20015;-75
2021/10/08 08:01:31;;;;;;;29.17;19.33;;;13.30;99.90;;;;;;6239478;22;20036;-75
2021/10/08 08:03:57;;;;;;;32.22;21.48;;;13.30;99.90;;;;;;6240381;22;20004;-74
2021/10/08 08:06:22;;;;;;;36.17;22.42;;;13.30;99.90;;;;;;6238805;23;20000;-76
2021/10/08 08:08:47;;;;;;;31.95;20.58;;;13.30;99.90;;;;;;6238663;23;20000;-75
2021/10/08 08:11:13;;;;;;;33.88;20.20;;;13.30;99.90;;;;;;6239123;23;20000;-75
2021/10/08 08:13:39;;;;;;;34.78;21.15;;;13.30;99.90;;;;;;6239970;23;20427;-75
2021/10/08 08:16:04;;;;;;;34.78;21.10;;;13.40;99.90;;;;;;6240265;23;20000;-76
2021/10/08 08:18:30;;;;;;;38.60;22.45;;;13.40;99.90;;;;;;6237952;23;20000;-75
2021/10/08 08:20:55;;;;;;;35.92;22.33;;;13.40;99.90;;;;;;6239741;23;20300;-75
2021/10/08 08:23:21;;;;;;;36.13;22.77;;;13.50;99.90;;;;;;6239343;23;20000;-75
2021/10/08 08:25:46;;;;;;;33.90;21.30;;;13.50;99.90;;;;;;6239964;23;20008;-75
2021/10/08 08:28:12;;;;;;;31.00;21.05;;;13.60;99.90;;;;;;6238824;23;20036;-76
2021/10/08 08:30:40;;;;;;;34.60;21.85;;;13.60;99.90;;;;;;6240320;23;20006;-75
2021/10/08 08:33:05;;;;;;;33.13;21.63;;;13.70;99.90;;;;;;6239309;22;20008;-75
2021/10/08 08:35:31;;;;;;;34.20;20.42;;;13.80;99.90;;;;;;6240045;23;20008;-74
2021/10/08 08:37:57;;;;;;;32.22;22.02;;;13.90;99.90;;;;;;6238397;23;20438;-75
2021/10/08 08:40:24;;;;;;;34.75;22.42;;;14.00;99.60;;;;;;6239110;23;20007;-75
2021/10/08 08:42:53;;;;;;;33.38;21.67;;;14.10;99.50;;;;;;6239463;22;20015;-74
2021/10/08 08:45:18;;;;;;;35.47;23.23;;;14.10;99.30;;;;;;6239622;23;19996;-75
2021/10/08 08:48:01;;;;;;;39.00;21.88;;;14.20;99.20;;;;;;6238251;23;20079;-75
2021/10/08 08:50:28;;;;;;;32.40;21.38;;;14.20;99.50;;;;;;6239193;22;20004;-76
2021/10/08 08:52:54;;;;;;;33.47;22.80;;;14.20;99.40;;;;;;6238895;23;20008;-76
2021/10/08 08:55:20;;;;;;;37.47;21.13;;;14.30;99.10;;;;;;6240100;23;20000;-76
2021/10/08 08:57:46;;;;;;;32.13;21.20;;;14.30;98.90;;;;;;6238535;23;20000;-76
2021/10/08 09:00:13;;;;;;;33.13;21.42;;;14.40;99.20;;;;;;6239019;22;20072;-75
2021/10/08 09:02:40;;;;;;;36.08;21.38;;;14.40;99.00;;;;;;6239431;23;20028;-75
2021/10/08 09:05:15;;;;;;;33.55;21.10;;;14.40;99.10;;;;;;6240065;22;20062;-77
2021/10/08 09:07:41;;;;;;;33.33;20.83;;;14.50;99.00;;;;;;6238397;23;20328;-75
2021/10/08 09:10:21;;;;;;;34.72;22.70;;;14.50;98.90;;;;;;6238313;23;20126;-78
2021/10/08 09:12:48;;;;;;;39.47;22.05;;;14.50;98.80;;;;;;6239581;23;20008;-75
2021/10/08 09:15:16;;;;;;;33.72;22.40;;;14.60;98.70;;;;;;6239515;23;20015;-76
2021/10/08 09:17:42;;;;;;;36.00;22.88;;;14.50;98.80;;;;;;6237761;22;20402;-76
2021/10/08 09:20:11;;;;;;;38.35;25.55;;;14.50;98.50;;;;;;6238528;23;20010;-75
2021/10/08 09:22:40;;;;;;;35.38;24.38;;;14.50;98.60;;;;;;6238733;23;20616;-76
2021/10/08 09:25:21;;;;;;;33.15;23.40;;;14.50;98.80;;;;;;6239736;22;20062;-75
2021/10/08 09:27:49;;;;;;;36.95;22.42;;;14.40;98.80;;;;;;6237255;22;20073;-77
2021/10/08 09:30:15;;;;;;;32.80;22.80;;;14.50;98.90;;;;;;6238721;23;20074;-76
2021/10/08 09:32:50;;;;;;;38.58;23.23;;;14.50;98.80;;;;;;6238653;23;20012;-76
2021/10/08 09:35:21;;;;;;;38.58;24.80;;;14.50;98.50;;;;;;6238812;22;20004;-77
2021/10/08 09:37:59;;;;;;;29.40;20.25;;;14.50;98.40;;;;;;6238099;23;20026;-76
2021/10/08 09:40:28;;;;;;;38.13;24.55;;;14.50;98.70;;;;;;6238635;22;20004;-76
2021/10/08 09:43:00;;;;;;;35.33;24.42;;;14.40;98.50;;;;;;6236868;22;20004;-76
2021/10/08 09:45:47;;;;;;;31.98;23.05;;;14.50;98.70;;;;;;6239344;22;20052;-75
2021/10/08 09:48:13;;;;;;;34.17;22.30;;;14.50;98.80;;;;;;6237037;22;20058;-76
2021/10/08 09:51:05;;;;;;;34.80;22.50;;;14.60;98.00;;;;;;6238139;23;20838;-76
2021/10/08 09:53:33;;;;;;;35.33;22.85;;;14.80;97.80;;;;;;6236914;23;20073;-76
2021/10/08 09:55:59;;;;;;;38.22;22.52;;;14.80;97.60;;;;;;6237469;23;20008;-77
2021/10/08 09:58:24;;;;;;;35.53;22.08;;;14.90;97.60;;;;;;6236935;23;20135;-76
2021/10/08 10:01:01;;;;;;;34.90;20.67;;;15.00;97.80;;;;;;6237846;22;20000;-76
2021/10/08 10:03:28;;;;;;;33.10;23.17;;;15.10;97.80;;;;;;6238680;22;20007;-76
2021/10/08 10:05:57;;;;;;;34.42;22.85;;;15.20;97.20;;;;;;6238475;23;20004;-77
2021/10/08 10:08:23;;;;;;;40.45;22.20;;;15.20;97.30;;;;;;6237013;23;20008;-76
2021/10/08 10:10:49;;;;;;;37.42;22.00;;;15.30;96.80;;;;;;6237451;23;20054;-76
2021/10/08 10:13:14;;;;;;;34.88;21.80;;;15.30;96.80;;;;;;6236873;23;20008;-77
2021/10/08 10:15:44;;;;;;;31.85;21.17;;;15.30;97.10;;;;;;6236306;23;20038;-77
2021/10/08 10:18:15;;;;;;;31.25;20.45;;;15.30;96.80;;;;;;6235612;22;19996;-76
2021/10/08 10:20:48;;;;;;;34.50;21.48;;;15.40;96.80;;;;;;6237495;23;20000;-77
2021/10/08 10:23:17;;;;;;;37.40;22.65;;;15.40;97.00;;;;;;6261267;22;20335;-77
2021/10/08 10:25:44;;;;;;;34.45;21.38;;;15.40;97.00;;;;;;6236284;22;20015;-77
2021/10/08 10:28:10;;;;;;;29.40;20.42;;;15.50;96.50;;;;;;6237017;22;20007;-76
2021/10/08 10:30:36;;;;;;;33.85;23.17;;;15.50;96.70;;;;;;6236684;23;20007;-77
2021/10/08 10:33:02;;;;;;;33.30;22.27;;;15.50;96.70;;;;;;6236257;23;20012;-77
2021/10/08 10:35:47;;;;;;;33.03;22.40;;;15.60;96.80;;;;;;6236217;23;20008;-77
2021/10/08 10:38:35;;;;;;;32.15;21.65;;;15.70;96.50;;;;;;6236146;23;20066;-76
2021/10/08 10:41:09;;;;;;;31.77;21.05;;;15.80;96.20;;;;;;6236352;22;20004;-76
2021/10/08 10:43:38;;;;;;;36.38;22.23;;;15.80;95.70;;;;;;6235995;23;20009;-76
2021/10/08 10:46:25;;;;;;;35.38;21.20;;;15.80;96.00;;;;;;6236561;22;20000;-76
2021/10/08 10:49:34;;;;;;;31.98;20.80;;;15.80;95.70;;;;;;6235010;22;20323;-76
2021/10/08 10:51:59;;;;;;;36.17;23.15;;;15.90;96.20;;;;;;6141942;23;20006;-76
2021/10/08 10:54:34;;;;;;;36.55;22.90;;;16.00;95.60;;;;;;6222203;22;20379;-76
2021/10/08 10:57:03;;;;;;;31.10;20.45;;;16.00;96.00;;;;;;6236262;23;20114;-76
2021/10/08 10:59:30;;;;;;;32.42;20.70;;;16.00;95.40;;;;;;6236034;23;20020;-76
2021/10/08 11:02:09;;;;;;;31.80;20.52;;;16.10;95.50;;;;;;6236207;23;20008;-76
2021/10/08 11:04:49;;;;;;;37.40;22.13;;;16.00;95.10;;;;;;6235171;22;20060;-76
2021/10/08 11:07:17;;;;;;;29.65;20.02;;;15.90;95.20;;;;;;6238377;22;20004;-76
2021/10/08 11:10:03;;;;;;;32.67;21.58;;;15.80;95.40;;;;;;6237103;22;20277;-76
2021/10/08 11:12:35;;;;;;;29.88;20.58;;;15.90;95.30;;;;;;6238791;23;20079;-75
2021/10/08 11:15:19;;;;;;;35.00;20.55;;;15.90;95.50;;;;;;6238652;22;20024;-76
2021/10/08 11:17:55;;;;;;;32.13;21.48;;;16.10;95.40;;;;;;6238024;22;20079;-76
2021/10/08 11:20:37;;;;;;;32.05;19.88;;;16.20;94.70;;;;;;6237964;23;20445;-76
2021/10/08 11:23:26;;;;;;;31.00;20.13;;;16.30;95.00;;;;;;6238857;22;20087;-76
2021/10/08 11:25:54;;;;;;;36.10;20.38;;;16.30;94.10;;;;;;6238011;23;20550;-76
2021/10/08 11:28:29;;;;;;;30.42;20.17;;;16.30;94.20;;;;;;6238187;22;20054;-76
2021/10/08 11:30:55;;;;;;;37.22;21.95;;;16.40;94.10;;;;;;6238478;23;20024;-76
2021/10/08 11:33:35;;;;;;;31.75;20.00;;;16.40;94.20;;;;;;6233477;23;20039;-76
2021/10/08 11:36:18;;;;;;;29.85;18.60;;;16.40;94.20;;;;;;6237870;22;19996;-78
2021/10/08 11:38:44;;;;;;;33.97;19.85;;;16.50;94.40;;;;;;6237556;22;20004;-76
2021/10/08 11:41:25;;;;;;;34.80;21.05;;;16.60;94.70;;;;;;6236765;23;20027;-74
2021/10/08 11:44:17;;;;;;;31.30;19.65;;;16.80;94.30;;;;;;6237703;22;20004;-76
2021/10/08 11:46:58;;;;;;;31.90;21.55;;;16.90;94.00;;;;;;6237521;22;20004;-76
2021/10/08 11:51:56;;;;;;;33.60;19.95;;;17.10;93.10;;;;;;6248342;23;20004;-76
2021/10/08 11:54:22;;;;;;;35.85;21.17;;;17.10;93.40;;;;;;6237734;23;20033;-75
2021/10/08 11:56:59;;;;;;;32.15;21.80;;;17.10;93.00;;;;;;6238560;23;20000;-77
2021/10/08 11:59:25;;;;;;;37.05;21.95;;;17.10;92.80;;;;;;6238272;22;20066;-76
2021/10/08 12:02:10;;;;;;;35.70;21.83;;;17.00;93.70;;;;;;6238541;22;20008;-76
2021/10/08 12:04:36;;;;;;;37.30;21.55;;;17.00;93.70;;;;;;6261922;22;20004;-77
2021/10/08 12:07:10;;;;;;;32.05;22.27;;;17.20;93.70;;;;;;6237752;23;20387;-76
2021/10/08 12:09:36;;;;;;;32.50;22.23;;;17.30;93.70;;;;;;6238077;23;20004;-76
2021/10/08 12:12:11;;;;;;;35.10;22.25;;;17.30;93.10;;;;;;6238073;23;20008;-77
2021/10/08 12:14:47;;;;;;;29.58;20.13;;;17.40;92.60;;;;;;6237980;23;20008;-76
2021/10/08 12:17:14;;;;;;;33.80;20.00;;;17.40;92.80;;;;;;6237779;23;20454;-76
2021/10/08 12:19:39;;;;;;;33.42;20.33;;;17.30;93.00;;;;;;6237099;23;20004;-76
2021/10/08 12:22:05;;;;;;;35.10;21.42;;;17.20;93.50;;;;;;6237605;23;20139;-77
2021/10/08 12:24:32;;;;;;;36.70;21.58;;;17.20;93.30;;;;;;6238575;23;20004;-77
2021/10/08 12:27:00;;;;;;;29.77;19.52;;;17.30;93.20;;;;;;6237175;22;20036;-77
2021/10/08 12:29:41;;;;;;;29.90;20.80;;;17.30;93.10;;;;;;6261131;22;20004;-76
2021/10/08 12:32:16;;;;;;;29.75;20.08;;;17.50;92.70;;;;;;6237303;23;20008;-77
2021/10/08 12:34:54;;;;;;;30.48;20.35;;;17.50;92.40;;;;;;6238233;22;20434;-77
2021/10/08 12:37:21;;;;;;;31.23;19.88;;;17.70;92.50;;;;;;6237647;22;20007;-77
2021/10/08 12:40:10;;;;;;;31.00;18.65;;;17.80;93.10;;;;;;6237682;22;20011;-77
2021/10/08 12:45:36;;;;;;;27.60;19.58;;;17.80;92.70;;;;;;6248233;22;20019;-77
2021/10/08 12:48:04;;;;;;;26.48;18.75;;;17.90;92.30;;;;;;6236678;22;20004;-77